sensor_id;sensor_type;location;lat;lon;timestamp;pressure;altitude;pressure_sealevel;temperature;humidity
10476;BME280;26166;48.264;11.436;2023-04-02T00:04:21;95399.81;;;11.28;56.85
10476;BME280;26166;48.264;11.436;2023-04-02T00:07:27;95399.00;;;11.27;56.74
10476;BME280;26166;48.264;11.436;2023-04-02T00:10:35;95412.16;;;11.27;56.86
10476;BME280;26166;48.264;11.436;2023-04-02T00:13:40;95413.97;;;11.27;56.49
10476;BME280;26166;48.264;11.436;2023-04-02T00:16:42;95414.78;;;11.27;56.76
10476;BME280;26166;48.264;11.436;2023-04-02T00:19:53;95419.22;;;11.27;56.51
10476;BME280;26166;48.264;11.436;2023-04-02T00:22:56;95419.88;;;11.29;56.64
10476;BME280;26166;48.264;11.436;2023-04-02T00:25:56;95417.25;;;11.29;56.73
10476;BME280;26166;48.264;11.436;2023-04-02T00:28:57;95422.50;;;11.29;56.44
10476;BME280;26166;48.264;11.436;2023-04-02T00:31:58;95424.13;;;11.30;56.46
10476;BME280;26166;48.264;11.436;2023-04-02T00:34:58;95423.91;;;11.31;56.64
10476;BME280;26166;48.264;11.436;2023-04-02T00:37:59;95423.31;;;11.29;56.56
10476;BME280;26166;48.264;11.436;2023-04-02T00:41:01;95427.75;;;11.29;56.34
10476;BME280;26166;48.264;11.436;2023-04-02T00:44:02;95426.91;;;11.28;56.38
10476;BME280;26166;48.264;11.436;2023-04-02T00:53:24;95425.66;;;11.24;56.32
10476;BME280;26166;48.264;11.436;2023-04-02T00:56:30;95419.44;;;11.25;56.55
10476;BME280;26166;48.264;11.436;2023-04-02T00:59:35;95428.13;;;11.26;56.66
10476;BME280;26166;48.264;11.436;2023-04-02T01:02:41;95422.06;;;11.25;56.25
10476;BME280;26166;48.264;11.436;2023-04-02T01:05:49;95424.69;;;11.25;56.61
10476;BME280;26166;48.264;11.436;2023-04-02T01:15:20;95422.44;;;11.22;56.08
10476;BME280;26166;48.264;11.436;2023-04-02T01:18:26;95424.06;;;11.23;56.21
10476;BME280;26166;48.264;11.436;2023-04-02T01:21:32;95422.63;;;11.21;56.46
10476;BME280;26166;48.264;11.436;2023-04-02T01:24:33;95427.25;;;11.19;56.30
10476;BME280;26166;48.264;11.436;2023-04-02T01:27:37;95426.44;;;11.18;56.40
10476;BME280;26166;48.264;11.436;2023-04-02T01:30:39;95431.91;;;11.17;56.33
10476;BME280;26166;48.264;11.436;2023-04-02T01:33:41;95436.34;;;11.16;56.57
10476;BME280;26166;48.264;11.436;2023-04-02T01:36:44;95437.97;;;11.17;56.71
10476;BME280;26166;48.264;11.436;2023-04-02T01:43:10;95444.84;;;11.18;56.25
10476;BME280;26166;48.264;11.436;2023-04-02T01:46:26;95439.59;;;11.18;56.41
10476;BME280;26166;48.264;11.436;2023-04-02T01:49:27;95439.38;;;11.20;56.28
10476;BME280;26166;48.264;11.436;2023-04-02T01:52:34;95440.22;;;11.20;56.40
10476;BME280;26166;48.264;11.436;2023-04-02T01:58:37;95450.75;;;11.20;56.60
10476;BME280;26166;48.264;11.436;2023-04-02T02:01:39;95447.91;;;11.22;56.19
10476;BME280;26166;48.264;11.436;2023-04-02T02:04:42;95458.22;;;11.23;56.16
10476;BME280;26166;48.264;11.436;2023-04-02T02:07:43;95453.97;;;11.22;56.63
10476;BME280;26166;48.264;11.436;2023-04-02T02:10:43;95457.63;;;11.21;56.25
10476;BME280;26166;48.264;11.436;2023-04-02T02:13:51;95460.41;;;11.20;56.53
10476;BME280;26166;48.264;11.436;2023-04-02T02:16:54;95464.06;;;11.19;56.41
10476;BME280;26166;48.264;11.436;2023-04-02T02:19:56;95470.13;;;11.19;56.62
10476;BME280;26166;48.264;11.436;2023-04-02T02:22:58;95465.50;;;11.21;56.68
10476;BME280;26166;48.264;11.436;2023-04-02T02:25:59;95475.22;;;11.21;56.22
10476;BME280;26166;48.264;11.436;2023-04-02T02:28:59;95464.88;;;11.19;56.34
10476;BME280;26166;48.264;11.436;2023-04-02T02:32:00;95475.38;;;11.19;56.36
10476;BME280;26166;48.264;11.436;2023-04-02T02:44:31;95482.66;;;11.17;56.45
10476;BME280;26166;48.264;11.436;2023-04-02T02:47:35;95486.28;;;11.16;56.54
10476;BME280;26166;48.264;11.436;2023-04-02T02:50:37;95498.44;;;11.17;56.66
10476;BME280;26166;48.264;11.436;2023-04-02T02:53:45;95498.22;;;11.19;56.26
10476;BME280;26166;48.264;11.436;2023-04-02T02:56:52;95499.03;;;11.19;56.25
10476;BME280;26166;48.264;11.436;2023-04-02T02:59:54;95499.84;;;11.20;56.35
10476;BME280;26166;48.264;11.436;2023-04-02T03:02:56;95510.19;;;11.21;56.42
10476;BME280;26166;48.264;11.436;2023-04-02T03:05:59;95503.13;;;11.22;56.43
10476;BME280;26166;48.264;11.436;2023-04-02T03:12:37;95506.56;;;11.22;56.37
10476;BME280;26166;48.264;11.436;2023-04-02T03:19:00;95518.53;;;11.25;56.00
10476;BME280;26166;48.264;11.436;2023-04-02T03:22:10;95515.06;;;11.24;56.38
10476;BME280;26166;48.264;11.436;2023-04-02T03:28:15;95516.06;;;11.23;56.04
10476;BME280;26166;48.264;11.436;2023-04-02T03:31:18;95530.22;;;11.22;56.10
10476;BME280;26166;48.264;11.436;2023-04-02T03:34:26;95527.59;;;11.22;56.10
10476;BME280;26166;48.264;11.436;2023-04-02T03:37:29;95536.47;;;11.21;56.31
10476;BME280;26166;48.264;11.436;2023-04-02T03:40:36;95537.66;;;11.19;56.51
10476;BME280;26166;48.264;11.436;2023-04-02T03:43:39;95538.47;;;11.19;56.54
10476;BME280;26166;48.264;11.436;2023-04-02T03:46:43;95527.34;;;11.17;56.33
10476;BME280;26166;48.264;11.436;2023-04-02T03:49:45;95539.69;;;11.17;56.16
10476;BME280;26166;48.264;11.436;2023-04-02T03:52:47;95543.72;;;11.19;56.41
10476;BME280;26166;48.264;11.436;2023-04-02T03:55:47;95543.72;;;11.19;56.08
10476;BME280;26166;48.264;11.436;2023-04-02T03:58:51;95547.38;;;11.18;55.93
10476;BME280;26166;48.264;11.436;2023-04-02T04:01:55;95545.75;;;11.17;56.08
10476;BME280;26166;48.264;11.436;2023-04-02T04:04:57;95546.56;;;11.18;56.01
10476;BME280;26166;48.264;11.436;2023-04-02T04:07:59;95554.44;;;11.18;56.25
10476;BME280;26166;48.264;11.436;2023-04-02T04:11:02;95552.63;;;11.18;55.91
10476;BME280;26166;48.264;11.436;2023-04-02T04:14:08;95550.00;;;11.18;55.77
10476;BME280;26166;48.264;11.436;2023-04-02T04:17:13;95554.44;;;11.18;56.26
10476;BME280;26166;48.264;11.436;2023-04-02T04:26:43;95562.53;;;11.16;55.69
10476;BME280;26166;48.264;11.436;2023-04-02T04:33:29;95570.41;;;11.16;56.17
10476;BME280;26166;48.264;11.436;2023-04-02T04:36:43;95576.84;;;11.14;56.13
10476;BME280;26166;48.264;11.436;2023-04-02T04:40:00;95581.28;;;11.13;55.89
10476;BME280;26166;48.264;11.436;2023-04-02T04:43:03;95598.69;;;11.14;55.80
10476;BME280;26166;48.264;11.436;2023-04-02T04:46:07;95600.31;;;11.15;56.15
10476;BME280;26166;48.264;11.436;2023-04-02T04:49:22;95598.31;;;11.17;56.04
10476;BME280;26166;48.264;11.436;2023-04-02T04:52:26;95603.94;;;11.14;56.11
10476;BME280;26166;48.264;11.436;2023-04-02T04:55:29;95610.19;;;11.13;55.87
10476;BME280;26166;48.264;11.436;2023-04-02T05:01:35;95614.44;;;11.14;55.86
10476;BME280;26166;48.264;11.436;2023-04-02T05:04:40;95618.91;;;11.14;56.09
10476;BME280;26166;48.264;11.436;2023-04-02T05:07:45;95618.53;;;11.17;55.63
10476;BME280;26166;48.264;11.436;2023-04-02T05:10:49;95620.16;;;11.18;55.89
10476;BME280;26166;48.264;11.436;2023-04-02T05:13:55;95624.41;;;11.19;55.95
10476;BME280;26166;48.264;11.436;2023-04-02T05:16:58;95634.31;;;11.17;56.09
10476;BME280;26166;48.264;11.436;2023-04-02T05:29:21;95645.19;;;11.14;56.07
10476;BME280;26166;48.264;11.436;2023-04-02T05:32:27;95654.53;;;11.16;56.04
10476;BME280;26166;48.264;11.436;2023-04-02T05:35:31;95655.50;;;11.15;56.08
10476;BME280;26166;48.264;11.436;2023-04-02T05:38:34;95666.22;;;11.14;55.61
10476;BME280;26166;48.264;11.436;2023-04-02T05:41:36;95665.41;;;11.13;55.74
10476;BME280;26166;48.264;11.436;2023-04-02T05:44:38;95662.97;;;11.11;55.86
10476;BME280;26166;48.264;11.436;2023-04-02T05:47:44;95665.75;;;11.10;56.03
10476;BME280;26166;48.264;11.436;2023-04-02T05:50:52;95666.75;;;11.09;56.07
10476;BME280;26166;48.264;11.436;2023-04-02T05:53:57;95666.56;;;11.10;56.06
10476;BME280;26166;48.264;11.436;2023-04-02T05:57:00;95671.00;;;11.10;56.00
10476;BME280;26166;48.264;11.436;2023-04-02T06:00:03;95673.84;;;11.08;56.16
10476;BME280;26166;48.264;11.436;2023-04-02T06:03:14;95678.91;;;11.10;56.29
10476;BME280;26166;48.264;11.436;2023-04-02T06:06:28;95679.91;;;11.09;55.93
10476;BME280;26166;48.264;11.436;2023-04-02T06:09:40;95684.16;;;11.10;56.03
10476;BME280;26166;48.264;11.436;2023-04-02T06:12:43;95682.34;;;11.10;56.11
10476;BME280;26166;48.264;11.436;2023-04-02T06:15:45;95693.66;;;11.11;55.90
10476;BME280;26166;48.264;11.436;2023-04-02T06:18:46;95692.84;;;11.10;56.03
10476;BME280;26166;48.264;11.436;2023-04-02T06:21:47;95694.66;;;11.10;55.93
10476;BME280;26166;48.264;11.436;2023-04-02T06:24:51;95706.19;;;11.09;56.42
10476;BME280;26166;48.264;11.436;2023-04-02T06:27:54;95712.25;;;11.09;56.11
10476;BME280;26166;48.264;11.436;2023-04-02T06:30:57;95711.44;;;11.09;56.12
10476;BME280;26166;48.264;11.436;2023-04-02T06:34:00;95720.34;;;11.08;56.29
10476;BME280;26166;48.264;11.436;2023-04-02T06:37:01;95718.72;;;11.07;56.40
10476;BME280;26166;48.264;11.436;2023-04-02T06:40:03;95719.31;;;11.09;56.27
10476;BME280;26166;48.264;11.436;2023-04-02T06:43:17;95729.84;;;11.09;56.50
10476;BME280;26166;48.264;11.436;2023-04-02T06:46:22;95734.09;;;11.10;56.16
10476;BME280;26166;48.264;11.436;2023-04-02T06:52:46;95747.25;;;11.10;56.51
10476;BME280;26166;48.264;11.436;2023-04-02T06:59:04;95753.50;;;11.09;56.85
10476;BME280;26166;48.264;11.436;2023-04-02T07:02:15;95755.13;;;11.10;56.65
10476;BME280;26166;48.264;11.436;2023-04-02T07:05:18;95763.00;;;11.10;56.70
10476;BME280;26166;48.264;11.436;2023-04-02T07:08:18;95765.47;;;11.11;56.92
10476;BME280;26166;48.264;11.436;2023-04-02T07:11:19;95764.63;;;11.11;56.82
10476;BME280;26166;48.264;11.436;2023-04-02T07:14:20;95767.91;;;11.13;57.10
10476;BME280;26166;48.264;11.436;2023-04-02T07:17:20;95768.91;;;11.12;57.25
10476;BME280;26166;48.264;11.436;2023-04-02T07:20:25;95780.41;;;11.11;56.85
10476;BME280;26166;48.264;11.436;2023-04-02T07:23:26;95776.81;;;11.12;57.28
10476;BME280;26166;48.264;11.436;2023-04-02T07:26:26;95778.44;;;11.13;57.12
10476;BME280;26166;48.264;11.436;2023-04-02T07:29:27;95781.06;;;11.13;57.13
10476;BME280;26166;48.264;11.436;2023-04-02T07:32:27;95776.25;;;11.17;57.16
10476;BME280;26166;48.264;11.436;2023-04-02T07:35:28;95781.50;;;11.17;56.84
10476;BME280;26166;48.264;11.436;2023-04-02T07:38:28;95792.19;;;11.15;57.42
10476;BME280;26166;48.264;11.436;2023-04-02T07:41:28;95788.66;;;11.08;57.60
10476;BME280;26166;48.264;11.436;2023-04-02T07:44:29;95788.22;;;11.04;57.70
10476;BME280;26166;48.264;11.436;2023-04-02T07:47:29;95792.19;;;11.00;57.88
10476;BME280;26166;48.264;11.436;2023-04-02T07:50:30;95797.00;;;10.97;58.27
10476;BME280;26166;48.264;11.436;2023-04-02T07:53:32;95804.25;;;10.95;58.13
10476;BME280;26166;48.264;11.436;2023-04-02T07:56:32;95811.47;;;10.93;58.05
10476;BME280;26166;48.264;11.436;2023-04-02T07:59:32;95815.13;;;10.92;58.19
10476;BME280;26166;48.264;11.436;2023-04-02T08:02:33;95812.69;;;10.90;58.07
10476;BME280;26166;48.264;11.436;2023-04-02T08:05:33;95816.13;;;10.91;58.46
10476;BME280;26166;48.264;11.436;2023-04-02T08:08:33;95815.13;;;10.92;58.37
10476;BME280;26166;48.264;11.436;2023-04-02T08:11:33;95817.13;;;10.90;58.73
10476;BME280;26166;48.264;11.436;2023-04-02T08:14:33;95819.56;;;10.91;58.66
10476;BME280;26166;48.264;11.436;2023-04-02T08:17:33;95825.63;;;10.92;58.76
10476;BME280;26166;48.264;11.436;2023-04-02T08:20:34;95827.25;;;10.93;58.48
10476;BME280;26166;48.264;11.436;2023-04-02T08:23:35;95830.53;;;10.95;58.64
10476;BME280;26166;48.264;11.436;2023-04-02T08:26:36;95831.44;;;11.02;58.53
10476;BME280;26166;48.264;11.436;2023-04-02T08:29:36;95831.44;;;11.02;58.51
10476;BME280;26166;48.264;11.436;2023-04-02T08:32:36;95841.94;;;11.02;58.64
10476;BME280;26166;48.264;11.436;2023-04-02T08:35:39;95842.78;;;11.02;58.57
10476;BME280;26166;48.264;11.436;2023-04-02T08:38:40;95838.69;;;11.00;58.62
10476;BME280;26166;48.264;11.436;2023-04-02T08:41:44;95846.38;;;11.01;58.27
10476;BME280;26166;48.264;11.436;2023-04-02T08:47:55;95850.94;;;11.07;58.45
10476;BME280;26166;48.264;11.436;2023-04-02T08:50:56;95855.66;;;11.12;58.15
10476;BME280;26166;48.264;11.436;2023-04-02T08:53:59;95857.09;;;11.15;58.27
10476;BME280;26166;48.264;11.436;2023-04-02T08:57:10;95855.66;;;11.12;58.56
10476;BME280;26166;48.264;11.436;2023-04-02T09:06:48;95853.13;;;11.19;58.40
10476;BME280;26166;48.264;11.436;2023-04-02T09:09:50;95866.09;;;11.20;58.45
10476;BME280;26166;48.264;11.436;2023-04-02T09:12:51;95866.91;;;11.21;58.38
10476;BME280;26166;48.264;11.436;2023-04-02T09:15:53;95867.72;;;11.21;58.45
10476;BME280;26166;48.264;11.436;2023-04-02T09:18:55;95868.53;;;11.22;58.27
10476;BME280;26166;48.264;11.436;2023-04-02T09:25:09;95875.53;;;11.29;58.36
10476;BME280;26166;48.264;11.436;2023-04-02T09:28:11;95875.16;;;11.32;58.11
10476;BME280;26166;48.264;11.436;2023-04-02T09:31:15;95885.66;;;11.32;58.25
10476;BME280;26166;48.264;11.436;2023-04-02T09:37:27;95889.31;;;11.31;58.03
10476;BME280;26166;48.264;11.436;2023-04-02T09:40:31;95896.56;;;11.29;58.07
10476;BME280;26166;48.264;11.436;2023-04-02T09:43:35;95896.19;;;11.32;58.25
10476;BME280;26166;48.264;11.436;2023-04-02T09:46:36;95901.28;;;11.34;58.13
10476;BME280;26166;48.264;11.436;2023-04-02T09:49:36;95902.25;;;11.33;57.89
10476;BME280;26166;48.264;11.436;2023-04-02T09:52:37;95904.72;;;11.34;57.74
10476;BME280;26166;48.264;11.436;2023-04-02T09:55:37;95905.34;;;11.36;57.86
10476;BME280;26166;48.264;11.436;2023-04-02T09:58:38;95911.63;;;11.35;57.78
10476;BME280;26166;48.264;11.436;2023-04-02T10:04:46;95907.53;;;11.33;57.89
10476;BME280;26166;48.264;11.436;2023-04-02T10:07:49;95910.81;;;11.35;57.92
10476;BME280;26166;48.264;11.436;2023-04-02T10:10:50;95910.00;;;11.34;57.75
10476;BME280;26166;48.264;11.436;2023-04-02T10:13:53;95911.97;;;11.32;57.72
10476;BME280;26166;48.264;11.436;2023-04-02T10:16:56;95919.84;;;11.32;57.72
10476;BME280;26166;48.264;11.436;2023-04-02T10:19:58;95910.81;;;11.35;57.73
10476;BME280;26166;48.264;11.436;2023-04-02T10:23:00;95919.50;;;11.35;57.66
10476;BME280;26166;48.264;11.436;2023-04-02T10:32:47;95924.22;;;11.40;57.82
10476;BME280;26166;48.264;11.436;2023-04-02T10:36:02;95916.16;;;11.42;57.81
10476;BME280;26166;48.264;11.436;2023-04-02T10:39:09;95923.06;;;11.43;57.89
10476;BME280;26166;48.264;11.436;2023-04-02T10:45:34;95929.59;;;11.47;58.05
10476;BME280;26166;48.264;11.436;2023-04-02T10:51:58;95931.69;;;11.51;58.47
10476;BME280;26166;48.264;11.436;2023-04-02T10:55:15;95938.56;;;11.52;58.54
10476;BME280;26166;48.264;11.436;2023-04-02T10:58:24;95939.38;;;11.53;58.40
10476;BME280;26166;48.264;11.436;2023-04-02T11:01:26;95953.16;;;11.55;58.84
10476;BME280;26166;48.264;11.436;2023-04-02T11:05:04;95948.75;;;11.55;58.71
10476;BME280;26166;48.264;11.436;2023-04-02T11:08:01;95949.91;;;11.53;59.58
10476;BME280;26166;48.264;11.436;2023-04-02T11:11:05;95954.16;;;11.54;60.15
10476;BME280;26166;48.264;11.436;2023-04-02T11:14:14;95948.28;;;11.52;60.19
10476;BME280;26166;48.264;11.436;2023-04-02T11:17:16;95952.34;;;11.54;60.83
10476;BME280;26166;48.264;11.436;2023-04-02T11:23:55;95954.97;;;11.54;60.28
10476;BME280;26166;48.264;11.436;2023-04-02T11:30:16;95955.78;;;11.55;60.19
10476;BME280;26166;48.264;11.436;2023-04-02T11:39:54;95962.53;;;11.57;60.62
10476;BME280;26166;48.264;11.436;2023-04-02T11:42:56;95959.69;;;11.59;60.22
10476;BME280;26166;48.264;11.436;2023-04-02T11:49:32;95968.41;;;11.59;60.07
10476;BME280;26166;48.264;11.436;2023-04-02T11:55:46;95969.25;;;11.60;59.54
10476;BME280;26166;48.264;11.436;2023-04-02T12:02:23;95975.13;;;11.62;59.68
10476;BME280;26166;48.264;11.436;2023-04-02T12:05:31;95970.69;;;11.62;59.89
10476;BME280;26166;48.264;11.436;2023-04-02T12:11:39;95975.31;;;11.60;59.79
10476;BME280;26166;48.264;11.436;2023-04-02T12:14:46;95985.66;;;11.62;60.23
10476;BME280;26166;48.264;11.436;2023-04-02T12:17:47;95992.19;;;11.66;60.26
10476;BME280;26166;48.264;11.436;2023-04-02T12:20:51;95993.81;;;11.67;59.71
10476;BME280;26166;48.264;11.436;2023-04-02T12:23:53;96001.72;;;11.67;60.82
10476;BME280;26166;48.264;11.436;2023-04-02T12:27:08;95998.28;;;11.67;60.60
10476;BME280;26166;48.264;11.436;2023-04-02T12:30:18;96001.56;;;11.69;61.43
10476;BME280;26166;48.264;11.436;2023-04-02T12:36:20;96009.25;;;11.70;62.32
10476;BME280;26166;48.264;11.436;2023-04-02T12:39:21;96006.81;;;11.69;61.14
10476;BME280;26166;48.264;11.436;2023-04-02T12:42:40;96013.88;;;11.68;61.11
10476;BME280;26166;48.264;11.436;2023-04-02T12:45:40;96018.31;;;11.68;61.19
10476;BME280;26166;48.264;11.436;2023-04-02T12:48:41;96021.75;;;11.68;62.93
10476;BME280;26166;48.264;11.436;2023-04-02T12:51:41;96023.56;;;11.68;63.39
10476;BME280;26166;48.264;11.436;2023-04-02T12:54:57;96025.41;;;11.67;62.87
10476;BME280;26166;48.264;11.436;2023-04-02T12:57:58;96021.13;;;11.66;63.79
10476;BME280;26166;48.264;11.436;2023-04-02T13:01:08;96026.41;;;11.66;64.41
10476;BME280;26166;48.264;11.436;2023-04-02T13:04:09;96009.97;;;11.64;64.62
10476;BME280;26166;48.264;11.436;2023-04-02T13:07:15;96018.84;;;11.63;64.28
10476;BME280;26166;48.264;11.436;2023-04-02T13:10:23;96030.38;;;11.62;64.10
10476;BME280;26166;48.264;11.436;2023-04-02T13:13:25;96026.75;;;11.63;64.96
10476;BME280;26166;48.264;11.436;2023-04-02T13:16:28;96014.78;;;11.60;64.86
10476;BME280;26166;48.264;11.436;2023-04-02T13:19:31;96020.03;;;11.60;64.24
10476;BME280;26166;48.264;11.436;2023-04-02T13:22:32;96026.13;;;11.61;64.39
10476;BME280;26166;48.264;11.436;2023-04-02T13:25:34;96031.38;;;11.61;64.93
10476;BME280;26166;48.264;11.436;2023-04-02T13:28:34;96041.91;;;11.61;65.41
10476;BME280;26166;48.264;11.436;2023-04-02T13:31:35;96036.63;;;11.61;64.97
10476;BME280;26166;48.264;11.436;2023-04-02T13:34:35;96034.00;;;11.61;64.88
10476;BME280;26166;48.264;11.436;2023-04-02T13:37:35;96042.06;;;11.59;65.50
10476;BME280;26166;48.264;11.436;2023-04-02T13:40:36;96043.06;;;11.58;64.73
10476;BME280;26166;48.264;11.436;2023-04-02T13:43:36;96041.63;;;11.56;64.64
10476;BME280;26166;48.264;11.436;2023-04-02T13:46:37;96034.72;;;11.55;65.10
10476;BME280;26166;48.264;11.436;2023-04-02T13:49:37;96034.53;;;11.56;64.70
10476;BME280;26166;48.264;11.436;2023-04-02T13:52:37;96035.56;;;11.55;64.43
10476;BME280;26166;48.264;11.436;2023-04-02T13:55:38;96040.97;;;11.54;65.00
10476;BME280;26166;48.264;11.436;2023-04-02T13:58:39;96039.97;;;11.55;65.19
10476;BME280;26166;48.264;11.436;2023-04-02T14:01:40;96038.19;;;11.55;65.15
10476;BME280;26166;48.264;11.436;2023-04-02T14:04:43;96045.88;;;11.57;65.05
10476;BME280;26166;48.264;11.436;2023-04-02T14:08:27;96049.13;;;11.59;65.63
10476;BME280;26166;48.264;11.436;2023-04-02T14:11:23;96063.28;;;11.58;65.38
10476;BME280;26166;48.264;11.436;2023-04-02T14:14:49;96073.81;;;11.58;65.83
10476;BME280;26166;48.264;11.436;2023-04-02T14:24:22;96085.97;;;11.59;65.54
10476;BME280;26166;48.264;11.436;2023-04-02T14:27:37;96078.44;;;11.56;65.59
10476;BME280;26166;48.264;11.436;2023-04-02T14:46:34;96097.56;;;11.50;66.09
10476;BME280;26166;48.264;11.436;2023-04-02T14:49:36;96094.94;;;11.50;66.13
10476;BME280;26166;48.264;11.436;2023-04-02T14:52:41;96096.56;;;11.51;66.33
10476;BME280;26166;48.264;11.436;2023-04-02T14:55:43;96108.06;;;11.50;66.71
10476;BME280;26166;48.264;11.436;2023-04-02T14:58:47;96102.81;;;11.50;66.85
10476;BME280;26166;48.264;11.436;2023-04-02T15:01:52;96108.06;;;11.50;66.58
10476;BME280;26166;48.264;11.436;2023-04-02T15:05:00;96113.19;;;11.51;66.64
10476;BME280;26166;48.264;11.436;2023-04-02T15:08:17;96103.09;;;11.55;66.89
10476;BME280;26166;48.264;11.436;2023-04-02T15:11:25;96112.28;;;11.59;66.43
10476;BME280;26166;48.264;11.436;2023-04-02T15:14:27;96118.81;;;11.63;66.32
10476;BME280;26166;48.264;11.436;2023-04-02T15:17:30;96118.47;;;11.66;66.66
10476;BME280;26166;48.264;11.436;2023-04-02T15:20:35;96123.41;;;11.69;66.78
10476;BME280;26166;48.264;11.436;2023-04-02T15:23:41;96128.28;;;11.72;66.72
10476;BME280;26166;48.264;11.436;2023-04-02T15:29:47;96143.19;;;11.80;66.65
10476;BME280;26166;48.264;11.436;2023-04-02T15:32:48;96146.34;;;11.83;66.41
10476;BME280;26166;48.264;11.436;2023-04-02T15:35:54;96142.06;;;11.82;66.21
10476;BME280;26166;48.264;11.436;2023-04-02T15:45:25;96167.69;;;11.80;65.87
10476;BME280;26166;48.264;11.436;2023-04-02T15:48:46;96166.88;;;11.80;65.58
10476;BME280;26166;48.264;11.436;2023-04-02T16:04:59;96187.84;;;11.73;65.74
10476;BME280;26166;48.264;11.436;2023-04-02T16:08:18;96193.44;;;11.70;65.61
10476;BME280;26166;48.264;11.436;2023-04-02T16:11:24;96193.44;;;11.70;65.77
10476;BME280;26166;48.264;11.436;2023-04-02T16:14:28;96197.88;;;11.70;65.68
10476;BME280;26166;48.264;11.436;2023-04-02T16:17:36;96196.25;;;11.69;65.51
10476;BME280;26166;48.264;11.436;2023-04-02T16:20:47;96199.03;;;11.67;65.43
10476;BME280;26166;48.264;11.436;2023-04-02T16:23:49;96202.00;;;11.64;65.27
10476;BME280;26166;48.264;11.436;2023-04-02T16:45:37;96242.47;;;11.63;63.85
10476;BME280;26166;48.264;11.436;2023-04-02T16:49:03;96246.44;;;11.59;64.06
10476;BME280;26166;48.264;11.436;2023-04-02T16:55:18;96251.41;;;11.54;63.56
10476;BME280;26166;48.264;11.436;2023-04-02T17:01:34;96263.94;;;11.52;63.18
10476;BME280;26166;48.264;11.436;2023-04-02T17:04:44;96276.59;;;11.48;63.43
10476;BME280;26166;48.264;11.436;2023-04-02T17:11:08;96284.00;;;11.45;62.75
10476;BME280;26166;48.264;11.436;2023-04-02T17:14:30;96291.09;;;11.44;63.14
10476;BME280;26166;48.264;11.436;2023-04-02T17:17:33;96296.53;;;11.43;63.22
10476;BME280;26166;48.264;11.436;2023-04-02T17:20:34;96302.94;;;11.40;62.77
10476;BME280;26166;48.264;11.436;2023-04-02T17:23:53;96309.00;;;11.41;62.68
10476;BME280;26166;48.264;11.436;2023-04-02T17:26:58;96315.09;;;11.41;62.28
10476;BME280;26166;48.264;11.436;2023-04-02T17:30:42;96320.72;;;11.38;62.60
10476;BME280;26166;48.264;11.436;2023-04-02T17:33:22;96328.75;;;11.36;61.50
10476;BME280;26166;48.264;11.436;2023-04-02T17:52:57;96368.06;;;11.30;59.67
10476;BME280;26166;48.264;11.436;2023-04-02T18:05:43;96385.19;;;11.18;59.78
10476;BME280;26166;48.264;11.436;2023-04-02T18:09:00;96397.50;;;11.17;59.70
10476;BME280;26166;48.264;11.436;2023-04-02T18:12:22;96404.72;;;11.15;59.36
10476;BME280;26166;48.264;11.436;2023-04-02T18:22:04;96425.94;;;11.14;57.69
10476;BME280;26166;48.264;11.436;2023-04-02T18:25:19;96426.94;;;11.13;57.90
10476;BME280;26166;48.264;11.436;2023-04-02T18:34:45;96448.28;;;11.09;56.83
10476;BME280;26166;48.264;11.436;2023-04-02T18:41:16;96464.53;;;11.05;56.39
10476;BME280;26166;48.264;11.436;2023-04-02T18:50:30;96478.34;;;10.99;55.84
10476;BME280;26166;48.264;11.436;2023-04-02T18:53:32;96482.94;;;10.97;55.47
10476;BME280;26166;48.264;11.436;2023-04-02T18:56:33;96490.81;;;10.97;55.74
10476;BME280;26166;48.264;11.436;2023-04-02T18:59:40;96487.56;;;10.95;55.42
10476;BME280;26166;48.264;11.436;2023-04-02T19:03:05;96493.31;;;10.98;55.04
10476;BME280;26166;48.264;11.436;2023-04-02T19:06:12;96496.44;;;10.94;53.89
10476;BME280;26166;48.264;11.436;2023-04-02T19:09:21;96498.38;;;10.92;53.79
10476;BME280;26166;48.264;11.436;2023-04-02T19:12:23;96500.50;;;10.88;53.48
10476;BME280;26166;48.264;11.436;2023-04-02T19:15:26;96514.81;;;10.85;53.75
10476;BME280;26166;48.264;11.436;2023-04-02T19:22:09;96522.00;;;10.83;52.94
10476;BME280;26166;48.264;11.436;2023-04-02T19:28:37;96537.94;;;10.82;52.16
10476;BME280;26166;48.264;11.436;2023-04-02T19:31:59;96548.94;;;10.77;51.62
10476;BME280;26166;48.264;11.436;2023-04-02T19:35:11;96548.44;;;10.74;51.66
10476;BME280;26166;48.264;11.436;2023-04-02T19:41:45;96565.34;;;10.71;51.14
10476;BME280;26166;48.264;11.436;2023-04-02T19:44:49;96568.94;;;10.70;51.25
10476;BME280;26166;48.264;11.436;2023-04-02T19:47:50;96567.31;;;10.69;51.07
10476;BME280;26166;48.264;11.436;2023-04-02T19:50:50;96576.19;;;10.68;50.72
10476;BME280;26166;48.264;11.436;2023-04-02T19:53:51;96570.13;;;10.68;50.90
10476;BME280;26166;48.264;11.436;2023-04-02T19:56:51;96576.50;;;10.65;50.13
10476;BME280;26166;48.264;11.436;2023-04-02T19:59:52;96581.75;;;10.65;50.77
10476;BME280;26166;48.264;11.436;2023-04-02T20:02:52;96584.19;;;10.67;50.50
10476;BME280;26166;48.264;11.436;2023-04-02T20:05:52;96587.00;;;10.65;50.16
10476;BME280;26166;48.264;11.436;2023-04-02T20:08:53;96589.81;;;10.64;50.29
10476;BME280;26166;48.264;11.436;2023-04-02T20:11:53;96599.50;;;10.63;49.62
10476;BME280;26166;48.264;11.436;2023-04-02T20:14:53;96597.81;;;10.62;49.88
10476;BME280;26166;48.264;11.436;2023-04-02T20:17:53;96610.31;;;10.60;49.88
10476;BME280;26166;48.264;11.436;2023-04-02T20:20:54;96607.50;;;10.61;49.58
10476;BME280;26166;48.264;11.436;2023-04-02T20:23:54;96613.91;;;10.59;49.05
10476;BME280;26166;48.264;11.436;2023-04-02T20:26:54;96617.03;;;10.54;49.21
10476;BME280;26166;48.264;11.436;2023-04-02T20:29:55;96631.28;;;10.52;49.00